createdAt,value
2019-06-01T00:01:24.761Z,23.75
2019-06-01T00:03:57.754Z,23.71
2019-06-01T00:06:30.207Z,23.74
2019-06-01T00:09:02.580Z,23.78
2019-06-01T00:11:36.503Z,23.77
2019-06-01T00:14:10.394Z,23.79
2019-06-01T00:16:44.090Z,23.79
2019-06-01T00:19:16.468Z,23.72
2019-06-01T00:21:49.448Z,23.72
2019-06-01T00:24:21.834Z,23.73
2019-06-01T00:26:54.209Z,23.63
2019-06-01T00:29:26.572Z,23.65
2019-06-01T00:31:58.951Z,23.62
2019-06-01T00:34:31.522Z,23.59
2019-06-01T00:37:04.299Z,23.58
2019-06-01T00:39:37.800Z,23.55
2019-06-01T00:42:10.372Z,23.63
2019-06-01T00:44:44.316Z,23.74
2019-06-01T00:47:16.553Z,24.09
2019-06-01T00:49:48.904Z,24.02
2019-06-01T00:52:21.093Z,23.88
2019-06-01T00:54:53.774Z,23.72
2019-06-01T00:57:26.043Z,23.70
2019-06-01T00:59:58.517Z,23.64
2019-06-01T01:02:31.193Z,23.61
2019-06-01T01:05:17.943Z,23.42
2019-06-01T01:07:51.119Z,23.45
2019-06-01T01:10:25.102Z,23.25
2019-06-01T01:13:11.607Z,23.14
2019-06-01T01:15:45.235Z,23.22
2019-06-01T01:18:17.576Z,23.13
2019-06-01T01:20:51.955Z,22.97
2019-06-01T01:23:24.369Z,22.71
2019-06-01T01:25:57.052Z,22.56
2019-06-01T01:28:29.523Z,22.62
2019-06-01T01:31:12.871Z,22.58
2019-06-01T01:33:35.803Z,22.64
2019-06-01T01:36:08.178Z,22.59
2019-06-01T01:38:40.445Z,22.45
2019-06-01T01:41:13.126Z,22.31
2019-06-01T01:43:45.764Z,22.27
2019-06-01T01:46:18.274Z,22.30
2019-06-01T01:48:50.449Z,22.33
2019-06-01T01:51:22.820Z,22.32
2019-06-01T01:53:56.592Z,22.23
2019-06-01T01:56:28.991Z,22.25
2019-06-01T01:59:04.273Z,22.15
2019-06-01T02:01:36.503Z,22.08
2019-06-01T02:04:09.076Z,22.00
2019-06-01T02:06:41.249Z,22.06
2019-06-01T02:09:13.624Z,21.98
2019-06-01T02:11:46.101Z,22.21
2019-06-01T02:14:19.088Z,22.01
2019-06-01T02:16:51.912Z,22.02
2019-06-01T02:19:24.333Z,22.10
2019-06-01T02:21:58.507Z,22.16
2019-06-01T02:24:30.840Z,22.04
2019-06-01T02:27:03.353Z,21.85
2019-06-01T02:29:35.664Z,22.00
2019-06-01T02:32:08.036Z,21.77
2019-06-01T02:34:40.718Z,21.80
2019-06-01T02:37:13.085Z,21.79
2019-06-01T02:39:45.465Z,21.95
2019-06-01T02:42:18.035Z,21.74
2019-06-01T02:44:50.102Z,22.05
2019-06-01T02:47:22.270Z,21.99
2019-06-01T02:49:55.617Z,21.96
2019-06-01T02:52:28.444Z,21.97
2019-06-01T02:55:02.240Z,22.03
2019-06-01T02:57:34.927Z,22.12
2019-06-01T03:00:08.287Z,22.32
2019-06-01T03:02:41.565Z,22.31
2019-06-01T03:05:14.605Z,22.27
2019-06-01T03:07:49.537Z,22.91
2019-06-01T03:10:22.113Z,23.09
2019-06-01T03:12:58.153Z,23.09
2019-06-01T03:15:32.692Z,23.65
2019-06-01T03:18:05.701Z,23.92
2019-06-01T03:20:40.001Z,24.18
2019-06-01T03:23:15.544Z,24.69
2019-06-01T03:25:51.444Z,25.40
2019-06-01T03:28:26.950Z,25.35
2019-06-01T03:31:01.105Z,24.91
2019-06-01T03:33:34.385Z,25.00
2019-06-01T03:36:09.074Z,25.22
2019-06-01T03:38:41.645Z,25.23
2019-06-01T03:41:13.924Z,25.24
2019-06-01T03:43:47.393Z,25.10
2019-06-01T03:46:19.998Z,25.10
2019-06-01T03:48:52.999Z,24.74
2019-06-01T03:51:25.767Z,24.00
2019-06-01T03:53:58.658Z,24.42
2019-06-01T03:56:30.814Z,24.05
2019-06-01T03:59:03.401Z,24.08
2019-06-01T04:01:37.238Z,23.85
2019-06-01T04:04:09.890Z,23.99
2019-06-01T04:06:42.453Z,24.10
2019-06-01T04:09:14.927Z,24.33
2019-06-01T04:11:47.300Z,24.48
2019-06-01T04:14:19.672Z,24.40
2019-06-01T04:16:52.253Z,24.63
2019-06-01T04:19:24.728Z,24.38
2019-06-01T04:21:57.607Z,24.52
2019-06-01T04:24:30.042Z,24.36
2019-06-01T04:27:04.047Z,24.14
2019-06-01T04:29:36.387Z,24.56
2019-06-01T04:32:08.956Z,24.63
2019-06-01T04:34:41.216Z,24.88
2019-06-01T04:37:13.893Z,24.69
2019-06-01T04:39:46.566Z,24.51
2019-06-01T04:42:19.860Z,24.65
2019-06-01T04:44:52.344Z,25.02
2019-06-01T04:47:25.010Z,25.31
2019-06-01T04:49:57.386Z,25.31
2019-06-01T04:52:29.962Z,25.42
2019-06-01T04:55:02.336Z,25.27
2019-06-01T04:57:34.714Z,25.56
2019-06-01T05:00:24.210Z,25.40
2019-06-01T05:02:45.186Z,25.45
2019-06-01T05:05:17.658Z,25.68
2019-06-01T05:07:50.030Z,25.89
2019-06-01T05:10:22.506Z,25.75
2019-06-01T05:12:54.776Z,25.93
2019-06-01T05:15:27.354Z,26.42
2019-06-01T05:17:59.823Z,26.24
2019-06-01T05:20:31.891Z,26.11
2019-06-01T05:23:04.779Z,26.21
2019-06-01T05:25:37.040Z,26.26
2019-06-01T05:28:11.119Z,26.53
2019-06-01T05:30:43.631Z,26.50
2019-06-01T05:33:30.937Z,26.55
2019-06-01T05:35:50.316Z,26.52
2019-06-01T05:38:22.895Z,26.52
2019-06-01T05:40:55.368Z,26.81
2019-06-01T05:43:27.949Z,26.71
2019-06-01T05:46:00.211Z,26.75
2019-06-01T05:48:32.691Z,27.08
2019-06-01T05:51:05.166Z,27.15
2019-06-01T05:53:37.991Z,27.15
2019-06-01T05:56:10.529Z,27.02
2019-06-01T05:58:42.995Z,27.48
2019-06-01T06:01:16.451Z,27.56
2019-06-01T06:03:49.257Z,27.82
2019-06-01T06:06:22.060Z,27.49
2019-06-01T06:08:54.428Z,27.35
2019-06-01T06:11:27.007Z,28.06
2019-06-01T06:13:59.588Z,27.77
2019-06-01T06:16:32.053Z,27.93
2019-06-01T06:19:04.638Z,27.75
2019-06-01T06:21:36.901Z,28.02
2019-06-01T06:24:09.066Z,28.45
2019-06-01T06:26:41.443Z,28.14
2019-06-01T06:29:14.698Z,28.14
2019-06-01T06:31:47.941Z,27.90
2019-06-01T06:34:21.576Z,27.93
2019-06-01T06:36:54.108Z,27.68
2019-06-01T06:39:26.581Z,28.08
2019-06-01T06:41:59.262Z,28.57
2019-06-01T06:44:31.548Z,28.36
2019-06-01T06:47:04.104Z,28.58
2019-06-01T06:49:36.581Z,28.52
2019-06-01T06:52:09.167Z,28.76
2019-06-01T06:54:41.839Z,28.32
2019-06-01T06:57:14.212Z,28.69
2019-06-01T06:59:46.788Z,28.97
2019-06-01T07:02:20.785Z,28.41
2019-06-01T07:04:53.072Z,28.75
2019-06-01T07:07:25.786Z,28.67
2019-06-01T07:09:58.254Z,28.66
2019-06-01T07:12:31.560Z,29.09
2019-06-01T07:15:04.600Z,29.65
2019-06-01T07:17:36.777Z,29.48
2019-06-01T07:20:09.761Z,29.49
2019-06-01T07:22:42.440Z,29.17
2019-06-01T07:25:14.827Z,29.54
2019-06-01T07:27:47.398Z,29.87
2019-06-01T07:30:20.145Z,29.43
2019-06-01T07:32:52.745Z,29.58
2019-06-01T07:35:26.364Z,29.12
2019-06-01T07:37:58.812Z,28.76
2019-06-01T07:40:31.387Z,29.25
2019-06-01T07:43:03.860Z,29.51
2019-06-01T07:45:36.347Z,29.61
2019-06-01T07:48:08.745Z,29.67
2019-06-01T07:50:40.972Z,29.84
2019-06-01T07:53:13.532Z,29.98
2019-06-01T07:55:45.716Z,29.96
2019-06-01T07:58:18.171Z,30.07
2019-06-01T08:00:50.676Z,30.34
2019-06-01T08:03:26.615Z,30.31
2019-06-01T08:05:57.768Z,30.37
2019-06-01T08:08:31.407Z,30.54
2019-06-01T08:11:03.947Z,30.46
2019-06-01T08:13:36.061Z,30.57
2019-06-01T08:16:08.381Z,30.40
2019-06-01T08:18:40.649Z,30.06
2019-06-01T08:21:13.126Z,30.24
2019-06-01T08:23:45.392Z,30.22
2019-06-01T08:26:19.986Z,30.31
2019-06-01T08:28:51.884Z,30.27
2019-06-01T08:31:24.570Z,30.36
2019-06-01T08:33:57.028Z,30.56
2019-06-01T08:36:29.588Z,30.30
2019-06-01T08:39:02.091Z,30.36
2019-06-01T08:41:35.889Z,30.48
2019-06-01T08:44:08.578Z,30.17
2019-06-01T08:46:41.040Z,30.32
2019-06-01T08:49:13.517Z,30.28
2019-06-01T08:51:45.833Z,30.27
2019-06-01T08:54:18.463Z,30.29
2019-06-01T08:56:50.952Z,30.30
2019-06-01T08:59:24.227Z,30.37
2019-06-01T09:01:56.854Z,30.29
2019-06-01T09:04:30.687Z,30.40
2019-06-01T09:07:02.880Z,30.61
2019-06-01T09:09:35.373Z,30.71
2019-06-01T09:12:07.832Z,30.57
2019-06-01T09:14:40.303Z,30.60
2019-06-01T09:17:12.684Z,30.58
2019-06-01T09:19:45.047Z,30.44
2019-06-01T09:22:17.543Z,30.32
2019-06-01T09:24:53.288Z,30.50
2019-06-01T09:27:24.008Z,30.64
2019-06-01T09:29:56.483Z,30.48
2019-06-01T09:32:30.060Z,30.55
2019-06-01T09:35:02.277Z,30.54
2019-06-01T09:37:35.050Z,30.57
2019-06-01T09:40:08.601Z,30.64
2019-06-01T09:42:40.804Z,30.60
2019-06-01T09:45:13.388Z,30.52
2019-06-01T09:47:45.760Z,30.67
2019-06-01T09:50:19.261Z,30.51
2019-06-01T09:52:51.825Z,30.46
2019-06-01T09:55:24.098Z,30.40
2019-06-01T09:57:56.772Z,30.35
2019-06-01T10:00:30.338Z,30.48
2019-06-01T10:03:02.955Z,30.65
2019-06-01T10:05:36.194Z,30.53
2019-06-01T10:08:08.723Z,30.73
2019-06-01T10:10:42.304Z,30.83
2019-06-01T10:13:14.496Z,30.71
2019-06-01T10:15:46.659Z,30.51
2019-06-01T10:18:19.229Z,30.58
2019-06-01T10:21:07.884Z,30.48
2019-06-01T10:23:40.361Z,30.57
2019-06-01T10:26:12.805Z,30.93
2019-06-01T10:28:45.414Z,30.83
2019-06-01T10:31:17.784Z,30.71
2019-06-01T10:33:51.677Z,30.49
2019-06-01T10:36:24.674Z,30.18
2019-06-01T10:38:57.965Z,30.41
2019-06-01T10:41:31.234Z,30.61
2019-06-01T10:44:03.637Z,30.58
2019-06-01T10:46:36.119Z,30.69
2019-06-01T10:49:08.480Z,30.53
2019-06-01T10:51:42.273Z,30.48
2019-06-01T10:54:16.099Z,30.67
2019-06-01T10:56:48.363Z,30.83
2019-06-01T10:59:20.936Z,30.83
2019-06-01T11:01:53.717Z,30.87
2019-06-01T11:04:25.995Z,30.93
2019-06-01T11:06:58.462Z,30.93
2019-06-01T11:09:30.859Z,30.71
2019-06-01T11:12:03.215Z,30.70
2019-06-01T11:14:35.586Z,30.84
2019-06-01T11:17:08.779Z,31.03
2019-06-01T11:19:42.069Z,30.96
2019-06-01T11:22:14.737Z,30.93
2019-06-01T11:24:47.006Z,30.95
2019-06-01T11:27:19.689Z,31.11
2019-06-01T11:29:53.184Z,31.22
2019-06-01T11:32:25.873Z,31.13
2019-06-01T11:34:58.239Z,31.12
2019-06-01T11:37:30.725Z,31.12
2019-06-01T11:40:04.107Z,31.23
2019-06-01T11:42:36.993Z,31.17
2019-06-01T11:45:09.982Z,31.17
2019-06-01T11:47:42.921Z,31.29
2019-06-01T11:50:16.262Z,31.20
2019-06-01T11:52:48.737Z,31.27
2019-06-01T11:55:21.324Z,31.27
2019-06-01T11:57:53.990Z,31.27
2019-06-01T12:00:26.671Z,31.36
2019-06-01T12:02:59.239Z,31.40
2019-06-01T12:05:31.616Z,31.33
2019-06-01T12:08:04.094Z,31.09
2019-06-01T12:10:36.720Z,31.31
2019-06-01T12:13:08.938Z,31.47
2019-06-01T12:15:42.278Z,31.46
2019-06-01T12:18:14.704Z,31.46
2019-06-01T12:20:48.006Z,31.26
2019-06-01T12:23:20.473Z,31.33
2019-06-01T12:25:52.845Z,31.26
2019-06-01T12:28:25.223Z,31.25
2019-06-01T12:30:57.593Z,31.39
2019-06-01T12:33:29.968Z,31.39
2019-06-01T12:36:02.337Z,31.41
2019-06-01T12:38:37.850Z,31.56
2019-06-01T12:41:10.145Z,31.60
2019-06-01T12:43:45.599Z,31.69
2019-06-01T12:46:18.065Z,31.71
2019-06-01T12:48:50.541Z,31.58
2019-06-01T12:51:23.018Z,31.63
2019-06-01T12:53:55.703Z,31.76
2019-06-01T12:56:28.064Z,31.71
2019-06-01T12:59:00.761Z,31.60
2019-06-01T13:01:33.233Z,31.69
2019-06-01T13:04:07.537Z,31.62
2019-06-01T13:06:40.716Z,31.76
2019-06-01T13:09:13.197Z,31.65
2019-06-01T13:11:45.677Z,31.51
2019-06-01T13:14:18.156Z,31.50
2019-06-01T13:17:06.270Z,31.38
2019-06-01T13:19:24.428Z,31.34
2019-06-01T13:21:56.801Z,31.41
2019-06-01T13:24:29.284Z,31.44
2019-06-01T13:27:01.569Z,31.38
2019-06-01T13:29:34.029Z,31.26
2019-06-01T13:32:06.495Z,31.32
2019-06-01T13:34:38.984Z,31.33
2019-06-01T13:37:11.648Z,31.34
2019-06-01T13:39:45.165Z,31.43
2019-06-01T13:42:18.441Z,31.60
2019-06-01T13:44:51.630Z,31.61
2019-06-01T13:47:24.001Z,31.73
2019-06-01T13:49:57.400Z,31.81
2019-06-01T13:52:29.771Z,31.70
2019-06-01T13:55:02.625Z,31.56
2019-06-01T13:57:35.128Z,31.51
2019-06-01T14:00:08.725Z,31.51
2019-06-01T14:02:41.313Z,31.55
2019-06-01T14:05:14.039Z,31.60
2019-06-01T14:07:47.563Z,31.75
2019-06-01T14:10:21.185Z,31.76
2019-06-01T14:12:53.593Z,31.78
2019-06-01T14:15:26.245Z,31.78
2019-06-01T14:17:58.721Z,31.71
2019-06-01T14:20:31.186Z,31.76
2019-06-01T14:23:03.773Z,31.85
2019-06-01T14:25:36.400Z,31.77
2019-06-01T14:28:08.948Z,31.90
2019-06-01T14:30:41.288Z,31.60
2019-06-01T14:33:13.869Z,31.60
2019-06-01T14:35:46.645Z,31.66
2019-06-01T14:38:18.914Z,31.75
2019-06-01T14:40:52.380Z,31.62
2019-06-01T14:43:25.198Z,31.67
2019-06-01T14:45:58.289Z,31.67
2019-06-01T14:48:30.759Z,31.57
2019-06-01T14:51:03.232Z,31.67
2019-06-01T14:53:35.809Z,31.55
2019-06-01T14:56:08.216Z,31.05
2019-06-01T15:16:15.629Z,29.77
2019-06-01T15:18:55.950Z,29.62
2019-06-01T15:41:38.001Z,29.23
2019-06-01T16:14:38.606Z,29.19
2019-06-01T16:17:11.078Z,29.12
2019-06-01T16:19:43.659Z,29.08
2019-06-01T16:22:16.229Z,28.99
2019-06-01T16:24:48.811Z,28.91
2019-06-01T16:27:21.387Z,28.83
2019-06-01T16:29:54.594Z,28.71
2019-06-01T16:32:27.055Z,28.61
2019-06-01T16:35:01.021Z,28.52
2019-06-01T16:37:33.840Z,28.44
2019-06-01T16:40:10.938Z,28.44
2019-06-01T16:42:43.810Z,28.34
2019-06-01T16:45:16.782Z,28.28
2019-06-01T16:47:50.096Z,28.21
2019-06-01T16:50:22.974Z,28.15
2019-06-01T16:52:55.865Z,28.12
2019-06-01T16:55:31.395Z,28.05
2019-06-01T16:58:03.599Z,28.01
2019-06-01T17:00:36.350Z,27.93
2019-06-01T17:03:11.312Z,27.89
2019-06-01T17:05:43.551Z,27.76
2019-06-01T17:08:15.924Z,27.71
2019-06-01T17:10:48.708Z,27.60
2019-06-01T17:13:20.974Z,27.60
2019-06-01T17:15:53.244Z,27.54
2019-06-01T17:18:25.616Z,27.48
2019-06-01T17:20:59.194Z,27.47
2019-06-01T17:23:33.209Z,27.38
2019-06-01T17:26:07.589Z,27.36
2019-06-01T17:28:40.638Z,27.31
2019-06-01T17:31:13.323Z,27.28
2019-06-01T17:33:45.890Z,27.27
2019-06-01T17:36:18.570Z,27.25
2019-06-01T17:38:50.942Z,27.17
2019-06-01T17:41:23.516Z,27.08
2019-06-01T17:43:55.890Z,27.03
2019-06-01T17:46:28.156Z,26.99
2019-06-01T17:49:00.528Z,26.95
2019-06-01T17:51:33.009Z,26.86
2019-06-01T17:54:07.997Z,26.82
2019-06-01T17:56:39.896Z,26.82
2019-06-01T17:59:12.478Z,26.85
2019-06-01T18:01:45.343Z,26.79
2019-06-01T18:04:17.738Z,26.76
2019-06-01T18:06:50.203Z,26.90
2019-06-01T18:09:22.803Z,26.83
2019-06-01T18:11:55.653Z,26.81
2019-06-01T18:14:28.038Z,26.75
2019-06-01T18:17:00.621Z,26.76
2019-06-01T18:19:33.090Z,26.77
2019-06-01T18:22:06.723Z,26.75
2019-06-01T18:24:39.168Z,26.72
2019-06-01T18:27:12.665Z,26.81
2019-06-01T18:29:48.733Z,26.80
2019-06-01T18:32:19.151Z,26.81
2019-06-01T18:34:51.724Z,26.81
2019-06-01T18:37:26.073Z,26.87
2019-06-01T18:39:58.723Z,26.87
2019-06-01T18:42:31.480Z,26.81
2019-06-01T18:45:06.060Z,26.75
2019-06-01T18:47:38.917Z,26.79
2019-06-01T18:50:16.981Z,26.71
2019-06-01T18:52:47.139Z,26.73
2019-06-01T18:55:19.826Z,26.69
2019-06-01T18:57:55.668Z,26.66
2019-06-01T19:00:28.139Z,26.61
2019-06-01T19:03:00.558Z,26.50
2019-06-01T19:05:32.990Z,26.36
2019-06-01T19:08:05.670Z,26.26
2019-06-01T19:10:38.551Z,26.13
2019-06-01T19:13:11.705Z,26.10
2019-06-01T19:15:44.314Z,26.01
2019-06-01T19:18:17.230Z,25.94
2019-06-01T19:20:49.677Z,25.86
2019-06-01T19:23:23.038Z,25.88
2019-06-01T19:25:55.559Z,25.89
2019-06-01T19:28:28.022Z,25.90
2019-06-01T19:31:00.409Z,25.84
2019-06-01T19:33:33.172Z,25.83
2019-06-01T19:36:06.925Z,25.82
2019-06-01T19:38:40.869Z,25.88
2019-06-01T19:41:13.485Z,25.92
2019-06-01T19:43:46.042Z,25.90
2019-06-01T19:46:18.723Z,25.87
2019-06-01T19:48:51.078Z,25.85
2019-06-01T19:51:23.562Z,25.80
2019-06-01T19:53:57.507Z,25.72
2019-06-01T19:56:29.756Z,25.87
2019-06-01T19:59:02.221Z,26.19
2019-06-01T20:01:35.637Z,26.26
2019-06-01T20:04:08.294Z,25.94
2019-06-01T20:06:40.942Z,25.48
2019-06-01T20:09:13.245Z,24.96
2019-06-01T20:12:01.011Z,24.64
2019-06-01T20:14:19.420Z,24.26
2019-06-01T20:16:53.126Z,23.94
2019-06-01T20:19:26.829Z,23.30
2019-06-01T20:21:59.253Z,23.43
2019-06-01T20:24:31.851Z,23.29
2019-06-01T20:27:04.570Z,23.08
2019-06-01T20:29:36.932Z,22.86
2019-06-01T20:32:09.243Z,22.80
2019-06-01T20:34:41.622Z,22.53
2019-06-01T20:37:14.351Z,22.22
2019-06-01T20:39:46.826Z,21.70
2019-06-01T20:42:26.428Z,21.81
2019-06-01T20:44:53.408Z,21.76
2019-06-01T20:47:25.884Z,21.31
2019-06-01T20:49:58.356Z,21.13
2019-06-01T20:52:30.938Z,21.33
2019-06-01T20:55:04.953Z,21.37
2019-06-01T20:57:37.936Z,21.08
2019-06-01T21:00:11.538Z,21.13
2019-06-01T21:02:46.161Z,20.86
2019-06-01T21:05:19.868Z,20.80
2019-06-01T21:07:56.716Z,20.40
2019-06-01T21:10:26.854Z,20.55
2019-06-01T21:12:59.233Z,20.37
2019-06-01T21:15:32.115Z,20.45
2019-06-01T21:18:04.993Z,20.47
2019-06-01T21:20:37.479Z,20.26
2019-06-01T21:23:10.045Z,20.28
2019-06-01T21:25:42.212Z,20.39
2019-06-01T21:28:16.377Z,20.12
2019-06-01T21:30:48.802Z,20.33
2019-06-01T21:33:24.912Z,20.29
2019-06-01T21:35:55.401Z,20.18
2019-06-01T21:38:27.977Z,20.20
2019-06-01T21:41:01.684Z,20.00
2019-06-01T21:43:35.528Z,20.05
2019-06-01T21:46:08.054Z,19.94
2019-06-01T21:48:40.318Z,19.98
2019-06-01T21:51:12.689Z,20.01
2019-06-01T21:53:46.589Z,20.00
2019-06-01T21:56:20.661Z,19.93
2019-06-01T21:58:52.778Z,20.06
2019-06-01T22:01:26.873Z,20.03
2019-06-01T22:03:59.774Z,20.10
2019-06-01T22:06:32.145Z,20.12
2019-06-01T22:09:06.472Z,20.12
2019-06-01T22:11:38.733Z,20.12
2019-06-01T22:14:11.208Z,20.15
2019-06-01T22:16:43.476Z,20.15
2019-06-01T22:19:16.056Z,20.10
2019-06-01T22:21:48.636Z,20.04
2019-06-01T22:24:21.711Z,20.02
2019-06-01T22:26:53.987Z,20.03
2019-06-01T22:29:26.510Z,20.03
2019-06-01T22:31:59.041Z,19.97
2019-06-01T22:34:31.515Z,19.97
2019-06-01T22:37:04.087Z,19.93
2019-06-01T22:39:36.368Z,19.84
2019-06-01T22:42:09.147Z,19.84
2019-06-01T22:44:41.720Z,19.87
2019-06-01T22:47:13.989Z,19.76
2019-06-01T22:49:46.464Z,19.70
2019-06-01T22:52:18.835Z,19.75
2019-06-01T22:54:51.831Z,19.66
2019-06-01T22:57:26.575Z,19.64
2019-06-01T22:59:58.925Z,19.60
2019-06-01T23:02:32.020Z,19.59
2019-06-01T23:05:05.183Z,19.61
2019-06-01T23:07:37.372Z,19.62
2019-06-01T23:10:09.943Z,19.67
2019-06-01T23:12:42.521Z,19.68
2019-06-01T23:15:14.895Z,19.77
2019-06-01T23:17:47.373Z,19.76
2019-06-01T23:20:19.945Z,19.76
2019-06-01T23:22:52.322Z,19.72
2019-06-01T23:25:24.587Z,19.71
2019-06-01T23:27:57.157Z,19.72
2019-06-01T23:30:30.284Z,19.74
2019-06-01T23:33:02.629Z,19.69
2019-06-01T23:35:35.099Z,19.63
2019-06-01T23:38:07.671Z,19.52
2019-06-01T23:40:40.966Z,19.54
2019-06-01T23:43:13.546Z,19.56
2019-06-01T23:45:45.711Z,19.50
2019-06-01T23:48:18.183Z,19.53
2019-06-01T23:50:50.659Z,19.58
2019-06-01T23:53:23.522Z,19.78
2019-06-01T23:55:55.914Z,19.68
2019-06-01T23:58:28.284Z,19.57
